sensor_id;sensor_type;location;lat;lon;timestamp;P1;durP1;ratioP1;P2;durP2;ratioP2
912;SDS011;443;51.448;7.028;2022-07-29T00:00:04;1.60;;;1.40;;
912;SDS011;443;51.448;7.028;2022-07-29T00:02:32;1.67;;;0.90;;
912;SDS011;443;51.448;7.028;2022-07-29T00:04:59;2.40;;;1.27;;
912;SDS011;443;51.448;7.028;2022-07-29T00:07:27;2.50;;;1.30;;
912;SDS011;443;51.448;7.028;2022-07-29T00:09:55;4.33;;;1.57;;
912;SDS011;443;51.448;7.028;2022-07-29T00:12:23;1.87;;;1.00;;
912;SDS011;443;51.448;7.028;2022-07-29T00:14:51;5.43;;;0.90;;
912;SDS011;443;51.448;7.028;2022-07-29T00:17:17;2.60;;;1.77;;
912;SDS011;443;51.448;7.028;2022-07-29T00:19:44;2.10;;;0.97;;
912;SDS011;443;51.448;7.028;2022-07-29T00:22:11;1.30;;;1.00;;
912;SDS011;443;51.448;7.028;2022-07-29T00:24:39;2.70;;;1.30;;
912;SDS011;443;51.448;7.028;2022-07-29T00:27:06;1.80;;;1.10;;
912;SDS011;443;51.448;7.028;2022-07-29T00:29:33;1.60;;;1.33;;
912;SDS011;443;51.448;7.028;2022-07-29T00:32:00;1.30;;;0.83;;
912;SDS011;443;51.448;7.028;2022-07-29T00:34:26;1.10;;;0.80;;
912;SDS011;443;51.448;7.028;2022-07-29T00:37:11;1.93;;;1.13;;
912;SDS011;443;51.448;7.028;2022-07-29T00:39:39;2.63;;;1.10;;
912;SDS011;443;51.448;7.028;2022-07-29T00:42:06;0.90;;;0.67;;
912;SDS011;443;51.448;7.028;2022-07-29T00:44:35;3.40;;;1.23;;
912;SDS011;443;51.448;7.028;2022-07-29T00:47:03;1.37;;;0.90;;
912;SDS011;443;51.448;7.028;2022-07-29T00:49:30;2.03;;;1.33;;
912;SDS011;443;51.448;7.028;2022-07-29T00:51:56;9.50;;;1.40;;
912;SDS011;443;51.448;7.028;2022-07-29T00:54:23;2.90;;;1.10;;
912;SDS011;443;51.448;7.028;2022-07-29T00:56:53;2.20;;;1.57;;
912;SDS011;443;51.448;7.028;2022-07-29T00:59:20;5.10;;;1.40;;
912;SDS011;443;51.448;7.028;2022-07-29T01:01:46;1.60;;;1.07;;
912;SDS011;443;51.448;7.028;2022-07-29T01:04:13;1.83;;;1.23;;
912;SDS011;443;51.448;7.028;2022-07-29T01:06:40;2.27;;;1.60;;
912;SDS011;443;51.448;7.028;2022-07-29T01:09:08;1.33;;;1.00;;
912;SDS011;443;51.448;7.028;2022-07-29T01:11:35;4.07;;;1.73;;
912;SDS011;443;51.448;7.028;2022-07-29T01:14:05;3.20;;;1.50;;
912;SDS011;443;51.448;7.028;2022-07-29T01:16:35;3.20;;;1.20;;
912;SDS011;443;51.448;7.028;2022-07-29T01:19:07;7.33;;;1.10;;
912;SDS011;443;51.448;7.028;2022-07-29T01:21:48;1.50;;;0.93;;
912;SDS011;443;51.448;7.028;2022-07-29T01:24:33;9.93;;;1.10;;
912;SDS011;443;51.448;7.028;2022-07-29T01:27:16;2.07;;;1.30;;
912;SDS011;443;51.448;7.028;2022-07-29T01:29:59;1.70;;;1.00;;
912;SDS011;443;51.448;7.028;2022-07-29T01:32:29;1.00;;;0.90;;
912;SDS011;443;51.448;7.028;2022-07-29T01:35:02;3.40;;;1.13;;
912;SDS011;443;51.448;7.028;2022-07-29T01:37:32;1.10;;;1.00;;
912;SDS011;443;51.448;7.028;2022-07-29T01:40:06;3.87;;;1.40;;
912;SDS011;443;51.448;7.028;2022-07-29T01:42:42;3.90;;;1.10;;
912;SDS011;443;51.448;7.028;2022-07-29T01:45:13;2.70;;;1.20;;
912;SDS011;443;51.448;7.028;2022-07-29T01:47:43;3.83;;;1.10;;
912;SDS011;443;51.448;7.028;2022-07-29T01:50:16;1.70;;;1.30;;
912;SDS011;443;51.448;7.028;2022-07-29T01:52:45;3.17;;;1.20;;
912;SDS011;443;51.448;7.028;2022-07-29T01:55:16;1.70;;;1.40;;
912;SDS011;443;51.448;7.028;2022-07-29T01:57:46;2.10;;;1.20;;
912;SDS011;443;51.448;7.028;2022-07-29T02:00:16;2.60;;;1.60;;
912;SDS011;443;51.448;7.028;2022-07-29T02:02:44;2.40;;;1.20;;
912;SDS011;443;51.448;7.028;2022-07-29T02:05:14;3.17;;;1.20;;
912;SDS011;443;51.448;7.028;2022-07-29T02:07:43;1.07;;;0.70;;
912;SDS011;443;51.448;7.028;2022-07-29T02:10:12;1.33;;;0.83;;
912;SDS011;443;51.448;7.028;2022-07-29T02:12:40;1.63;;;1.20;;
912;SDS011;443;51.448;7.028;2022-07-29T02:15:09;1.80;;;0.97;;
912;SDS011;443;51.448;7.028;2022-07-29T02:17:41;2.77;;;1.37;;
912;SDS011;443;51.448;7.028;2022-07-29T02:20:11;1.67;;;1.27;;
912;SDS011;443;51.448;7.028;2022-07-29T02:22:39;1.53;;;1.00;;
912;SDS011;443;51.448;7.028;2022-07-29T02:25:07;1.60;;;1.00;;
912;SDS011;443;51.448;7.028;2022-07-29T02:27:36;2.17;;;1.10;;
912;SDS011;443;51.448;7.028;2022-07-29T02:30:05;2.57;;;1.20;;
912;SDS011;443;51.448;7.028;2022-07-29T02:32:34;7.90;;;1.50;;
912;SDS011;443;51.448;7.028;2022-07-29T02:35:04;1.07;;;0.77;;
912;SDS011;443;51.448;7.028;2022-07-29T02:37:31;1.40;;;1.17;;
912;SDS011;443;51.448;7.028;2022-07-29T02:39:59;3.23;;;1.20;;
912;SDS011;443;51.448;7.028;2022-07-29T02:42:27;2.57;;;1.30;;
912;SDS011;443;51.448;7.028;2022-07-29T02:44:55;2.70;;;1.30;;
912;SDS011;443;51.448;7.028;2022-07-29T02:47:23;1.20;;;1.00;;
912;SDS011;443;51.448;7.028;2022-07-29T02:49:55;2.63;;;1.13;;
912;SDS011;443;51.448;7.028;2022-07-29T02:52:28;1.93;;;1.20;;
912;SDS011;443;51.448;7.028;2022-07-29T02:55:01;3.00;;;0.97;;
912;SDS011;443;51.448;7.028;2022-07-29T02:57:37;1.10;;;0.97;;
912;SDS011;443;51.448;7.028;2022-07-29T03:00:09;4.10;;;1.37;;
912;SDS011;443;51.448;7.028;2022-07-29T03:02:38;4.40;;;1.10;;
912;SDS011;443;51.448;7.028;2022-07-29T03:05:09;2.10;;;1.00;;
912;SDS011;443;51.448;7.028;2022-07-29T03:07:40;3.00;;;1.27;;
912;SDS011;443;51.448;7.028;2022-07-29T03:10:09;1.70;;;1.20;;
912;SDS011;443;51.448;7.028;2022-07-29T03:12:36;2.80;;;1.30;;
912;SDS011;443;51.448;7.028;2022-07-29T03:15:05;3.33;;;1.17;;
912;SDS011;443;51.448;7.028;2022-07-29T03:17:33;2.80;;;1.30;;
912;SDS011;443;51.448;7.028;2022-07-29T03:20:01;1.07;;;0.90;;
912;SDS011;443;51.448;7.028;2022-07-29T03:22:29;3.10;;;1.60;;
912;SDS011;443;51.448;7.028;2022-07-29T03:24:57;2.77;;;1.40;;
912;SDS011;443;51.448;7.028;2022-07-29T03:27:33;2.13;;;1.43;;
912;SDS011;443;51.448;7.028;2022-07-29T03:30:00;4.23;;;1.47;;
912;SDS011;443;51.448;7.028;2022-07-29T03:32:27;1.53;;;1.03;;
912;SDS011;443;51.448;7.028;2022-07-29T03:34:54;2.03;;;1.57;;
912;SDS011;443;51.448;7.028;2022-07-29T03:37:21;2.47;;;1.50;;
912;SDS011;443;51.448;7.028;2022-07-29T03:39:48;1.70;;;1.30;;
912;SDS011;443;51.448;7.028;2022-07-29T03:42:18;2.37;;;1.40;;
912;SDS011;443;51.448;7.028;2022-07-29T03:44:49;4.10;;;1.67;;
912;SDS011;443;51.448;7.028;2022-07-29T03:47:17;2.00;;;1.50;;
912;SDS011;443;51.448;7.028;2022-07-29T03:49:48;3.43;;;1.10;;
912;SDS011;443;51.448;7.028;2022-07-29T03:52:18;1.40;;;0.80;;
912;SDS011;443;51.448;7.028;2022-07-29T03:54:46;1.73;;;1.37;;
912;SDS011;443;51.448;7.028;2022-07-29T03:57:13;2.60;;;1.37;;
912;SDS011;443;51.448;7.028;2022-07-29T03:59:43;2.43;;;1.00;;
912;SDS011;443;51.448;7.028;2022-07-29T04:02:11;1.67;;;1.30;;
912;SDS011;443;51.448;7.028;2022-07-29T04:04:38;4.13;;;1.60;;
912;SDS011;443;51.448;7.028;2022-07-29T04:07:05;4.03;;;1.40;;
912;SDS011;443;51.448;7.028;2022-07-29T04:09:32;2.40;;;1.40;;
912;SDS011;443;51.448;7.028;2022-07-29T04:11:59;4.73;;;1.90;;
912;SDS011;443;51.448;7.028;2022-07-29T04:14:26;2.20;;;1.47;;
912;SDS011;443;51.448;7.028;2022-07-29T04:16:55;1.87;;;1.43;;
912;SDS011;443;51.448;7.028;2022-07-29T04:19:21;2.40;;;1.23;;
912;SDS011;443;51.448;7.028;2022-07-29T04:21:48;3.43;;;1.10;;
912;SDS011;443;51.448;7.028;2022-07-29T04:24:16;2.33;;;1.10;;
912;SDS011;443;51.448;7.028;2022-07-29T04:26:43;1.50;;;1.10;;
912;SDS011;443;51.448;7.028;2022-07-29T04:29:11;1.73;;;0.90;;
912;SDS011;443;51.448;7.028;2022-07-29T04:31:39;1.30;;;0.77;;
912;SDS011;443;51.448;7.028;2022-07-29T04:34:07;1.03;;;0.77;;
912;SDS011;443;51.448;7.028;2022-07-29T04:36:34;4.10;;;1.07;;
912;SDS011;443;51.448;7.028;2022-07-29T04:39:02;2.23;;;1.10;;
912;SDS011;443;51.448;7.028;2022-07-29T04:41:29;2.87;;;1.13;;
912;SDS011;443;51.448;7.028;2022-07-29T04:43:56;1.87;;;1.30;;
912;SDS011;443;51.448;7.028;2022-07-29T04:46:25;1.47;;;0.80;;
912;SDS011;443;51.448;7.028;2022-07-29T04:48:52;1.57;;;1.30;;
912;SDS011;443;51.448;7.028;2022-07-29T04:51:20;1.30;;;0.93;;
912;SDS011;443;51.448;7.028;2022-07-29T04:53:47;1.33;;;1.07;;
912;SDS011;443;51.448;7.028;2022-07-29T04:56:14;3.33;;;1.67;;
912;SDS011;443;51.448;7.028;2022-07-29T04:58:40;2.40;;;1.40;;
912;SDS011;443;51.448;7.028;2022-07-29T05:01:07;3.30;;;1.33;;
912;SDS011;443;51.448;7.028;2022-07-29T05:03:34;1.73;;;1.30;;
912;SDS011;443;51.448;7.028;2022-07-29T05:06:01;4.70;;;1.47;;
912;SDS011;443;51.448;7.028;2022-07-29T05:08:29;7.03;;;2.10;;
912;SDS011;443;51.448;7.028;2022-07-29T05:10:56;2.20;;;1.00;;
912;SDS011;443;51.448;7.028;2022-07-29T05:13:23;1.90;;;1.13;;
912;SDS011;443;51.448;7.028;2022-07-29T05:15:50;2.83;;;1.57;;
912;SDS011;443;51.448;7.028;2022-07-29T05:18:17;4.27;;;1.17;;
912;SDS011;443;51.448;7.028;2022-07-29T05:20:44;8.30;;;1.60;;
912;SDS011;443;51.448;7.028;2022-07-29T05:23:11;6.30;;;1.30;;
912;SDS011;443;51.448;7.028;2022-07-29T05:25:41;1.30;;;1.00;;
912;SDS011;443;51.448;7.028;2022-07-29T05:28:08;1.63;;;1.27;;
912;SDS011;443;51.448;7.028;2022-07-29T05:30:35;1.60;;;1.13;;
912;SDS011;443;51.448;7.028;2022-07-29T05:33:02;4.40;;;1.70;;
912;SDS011;443;51.448;7.028;2022-07-29T05:35:29;6.13;;;1.63;;
912;SDS011;443;51.448;7.028;2022-07-29T05:37:56;1.57;;;0.97;;
912;SDS011;443;51.448;7.028;2022-07-29T05:40:23;0.90;;;0.80;;
912;SDS011;443;51.448;7.028;2022-07-29T05:42:51;2.30;;;1.50;;
912;SDS011;443;51.448;7.028;2022-07-29T05:45:18;2.37;;;1.30;;
912;SDS011;443;51.448;7.028;2022-07-29T05:47:45;3.17;;;1.37;;
912;SDS011;443;51.448;7.028;2022-07-29T05:50:12;2.10;;;1.47;;
912;SDS011;443;51.448;7.028;2022-07-29T05:52:39;3.73;;;1.40;;
912;SDS011;443;51.448;7.028;2022-07-29T05:55:06;1.37;;;1.17;;
912;SDS011;443;51.448;7.028;2022-07-29T05:57:33;2.70;;;1.40;;
912;SDS011;443;51.448;7.028;2022-07-29T06:00:01;3.90;;;1.57;;
912;SDS011;443;51.448;7.028;2022-07-29T06:02:29;2.23;;;1.70;;
912;SDS011;443;51.448;7.028;2022-07-29T06:04:56;3.20;;;1.40;;
912;SDS011;443;51.448;7.028;2022-07-29T06:07:23;1.50;;;1.03;;
912;SDS011;443;51.448;7.028;2022-07-29T06:09:50;2.83;;;1.40;;
912;SDS011;443;51.448;7.028;2022-07-29T06:12:17;4.40;;;1.87;;
912;SDS011;443;51.448;7.028;2022-07-29T06:14:44;2.17;;;1.50;;
912;SDS011;443;51.448;7.028;2022-07-29T06:17:13;3.73;;;1.67;;
912;SDS011;443;51.448;7.028;2022-07-29T06:19:39;2.50;;;1.77;;
912;SDS011;443;51.448;7.028;2022-07-29T06:22:06;4.57;;;1.87;;
912;SDS011;443;51.448;7.028;2022-07-29T06:24:33;6.30;;;2.47;;
912;SDS011;443;51.448;7.028;2022-07-29T06:27:02;1.63;;;1.20;;
912;SDS011;443;51.448;7.028;2022-07-29T06:29:29;1.87;;;1.67;;
912;SDS011;443;51.448;7.028;2022-07-29T06:31:56;2.30;;;1.63;;
912;SDS011;443;51.448;7.028;2022-07-29T06:34:24;2.97;;;1.30;;
912;SDS011;443;51.448;7.028;2022-07-29T06:36:51;2.60;;;1.87;;
912;SDS011;443;51.448;7.028;2022-07-29T06:39:18;3.30;;;1.40;;
912;SDS011;443;51.448;7.028;2022-07-29T06:41:46;1.93;;;1.23;;
912;SDS011;443;51.448;7.028;2022-07-29T06:44:14;2.70;;;1.67;;
912;SDS011;443;51.448;7.028;2022-07-29T06:46:41;4.40;;;1.63;;
912;SDS011;443;51.448;7.028;2022-07-29T06:49:08;3.63;;;2.33;;
912;SDS011;443;51.448;7.028;2022-07-29T06:51:38;5.00;;;2.17;;
912;SDS011;443;51.448;7.028;2022-07-29T06:54:05;2.60;;;1.83;;
912;SDS011;443;51.448;7.028;2022-07-29T06:56:33;5.77;;;2.30;;
912;SDS011;443;51.448;7.028;2022-07-29T06:59:02;3.40;;;3.03;;
912;SDS011;443;51.448;7.028;2022-07-29T07:01:29;3.43;;;3.13;;
912;SDS011;443;51.448;7.028;2022-07-29T07:03:56;3.90;;;2.57;;
912;SDS011;443;51.448;7.028;2022-07-29T07:06:23;2.97;;;1.90;;
912;SDS011;443;51.448;7.028;2022-07-29T07:08:51;2.83;;;2.20;;
912;SDS011;443;51.448;7.028;2022-07-29T07:11:19;3.63;;;1.70;;
912;SDS011;443;51.448;7.028;2022-07-29T07:13:46;4.97;;;2.20;;
912;SDS011;443;51.448;7.028;2022-07-29T07:16:13;6.63;;;2.53;;
912;SDS011;443;51.448;7.028;2022-07-29T07:18:40;7.33;;;2.73;;
912;SDS011;443;51.448;7.028;2022-07-29T07:21:06;3.97;;;1.33;;
912;SDS011;443;51.448;7.028;2022-07-29T07:23:33;5.53;;;2.27;;
912;SDS011;443;51.448;7.028;2022-07-29T07:26:01;3.83;;;1.50;;
912;SDS011;443;51.448;7.028;2022-07-29T07:28:30;3.37;;;2.20;;
912;SDS011;443;51.448;7.028;2022-07-29T07:30:57;3.33;;;1.67;;
912;SDS011;443;51.448;7.028;2022-07-29T07:33:24;3.90;;;1.73;;
912;SDS011;443;51.448;7.028;2022-07-29T07:35:51;8.57;;;2.27;;
912;SDS011;443;51.448;7.028;2022-07-29T07:38:18;18.40;;;4.40;;
912;SDS011;443;51.448;7.028;2022-07-29T07:40:45;7.10;;;2.17;;
912;SDS011;443;51.448;7.028;2022-07-29T07:43:13;1.83;;;1.47;;
912;SDS011;443;51.448;7.028;2022-07-29T07:45:40;1.87;;;1.60;;
912;SDS011;443;51.448;7.028;2022-07-29T07:48:07;2.90;;;2.33;;
912;SDS011;443;51.448;7.028;2022-07-29T07:50:35;5.30;;;1.57;;
912;SDS011;443;51.448;7.028;2022-07-29T07:53:02;6.63;;;2.27;;
912;SDS011;443;51.448;7.028;2022-07-29T07:55:29;3.90;;;1.93;;
912;SDS011;443;51.448;7.028;2022-07-29T07:57:55;4.00;;;1.80;;
912;SDS011;443;51.448;7.028;2022-07-29T08:00:24;3.20;;;1.70;;
912;SDS011;443;51.448;7.028;2022-07-29T08:02:51;3.07;;;2.00;;
912;SDS011;443;51.448;7.028;2022-07-29T08:05:18;3.23;;;2.23;;
912;SDS011;443;51.448;7.028;2022-07-29T08:07:46;3.17;;;1.93;;
912;SDS011;443;51.448;7.028;2022-07-29T08:10:13;2.50;;;1.63;;
912;SDS011;443;51.448;7.028;2022-07-29T08:13:01;4.40;;;1.77;;
912;SDS011;443;51.448;7.028;2022-07-29T08:15:30;3.70;;;1.70;;
912;SDS011;443;51.448;7.028;2022-07-29T08:17:57;6.00;;;1.93;;
912;SDS011;443;51.448;7.028;2022-07-29T08:20:24;2.70;;;1.80;;
912;SDS011;443;51.448;7.028;2022-07-29T08:22:51;6.07;;;2.00;;
912;SDS011;443;51.448;7.028;2022-07-29T08:25:18;12.90;;;5.97;;
912;SDS011;443;51.448;7.028;2022-07-29T08:27:45;7.50;;;2.40;;
912;SDS011;443;51.448;7.028;2022-07-29T08:30:12;14.37;;;2.60;;
912;SDS011;443;51.448;7.028;2022-07-29T08:32:41;2.83;;;2.00;;
912;SDS011;443;51.448;7.028;2022-07-29T08:35:08;5.90;;;2.17;;
912;SDS011;443;51.448;7.028;2022-07-29T08:37:35;15.70;;;2.97;;
912;SDS011;443;51.448;7.028;2022-07-29T08:40:02;5.53;;;2.10;;
912;SDS011;443;51.448;7.028;2022-07-29T08:42:29;9.83;;;3.53;;
912;SDS011;443;51.448;7.028;2022-07-29T08:44:56;2.47;;;2.27;;
912;SDS011;443;51.448;7.028;2022-07-29T08:47:24;5.00;;;2.43;;
912;SDS011;443;51.448;7.028;2022-07-29T08:49:53;18.17;;;2.90;;
912;SDS011;443;51.448;7.028;2022-07-29T08:52:20;3.90;;;1.97;;
912;SDS011;443;51.448;7.028;2022-07-29T08:54:51;4.60;;;2.50;;
912;SDS011;443;51.448;7.028;2022-07-29T08:57:19;5.13;;;2.80;;
912;SDS011;443;51.448;7.028;2022-07-29T08:59:47;3.13;;;2.27;;
912;SDS011;443;51.448;7.028;2022-07-29T09:02:19;3.60;;;2.70;;
912;SDS011;443;51.448;7.028;2022-07-29T09:04:46;4.10;;;3.53;;
912;SDS011;443;51.448;7.028;2022-07-29T09:07:16;3.27;;;2.10;;
912;SDS011;443;51.448;7.028;2022-07-29T09:09:44;4.10;;;2.33;;
912;SDS011;443;51.448;7.028;2022-07-29T09:12:12;2.47;;;2.20;;
912;SDS011;443;51.448;7.028;2022-07-29T09:14:39;3.87;;;2.57;;
912;SDS011;443;51.448;7.028;2022-07-29T09:17:06;3.70;;;2.27;;
912;SDS011;443;51.448;7.028;2022-07-29T09:19:34;3.77;;;3.10;;
912;SDS011;443;51.448;7.028;2022-07-29T09:22:03;7.77;;;3.17;;
912;SDS011;443;51.448;7.028;2022-07-29T09:24:39;3.20;;;2.40;;
912;SDS011;443;51.448;7.028;2022-07-29T09:27:12;3.03;;;1.93;;
912;SDS011;443;51.448;7.028;2022-07-29T09:29:46;6.50;;;3.53;;
912;SDS011;443;51.448;7.028;2022-07-29T09:32:13;6.23;;;2.37;;
912;SDS011;443;51.448;7.028;2022-07-29T09:34:40;3.77;;;3.30;;
912;SDS011;443;51.448;7.028;2022-07-29T09:37:07;4.60;;;3.87;;
912;SDS011;443;51.448;7.028;2022-07-29T09:39:35;6.63;;;3.23;;
912;SDS011;443;51.448;7.028;2022-07-29T09:42:10;5.77;;;2.20;;
912;SDS011;443;51.448;7.028;2022-07-29T09:44:41;11.80;;;3.27;;
912;SDS011;443;51.448;7.028;2022-07-29T09:47:13;3.70;;;2.73;;
912;SDS011;443;51.448;7.028;2022-07-29T09:49:50;5.73;;;3.00;;
912;SDS011;443;51.448;7.028;2022-07-29T09:52:19;3.83;;;3.00;;
912;SDS011;443;51.448;7.028;2022-07-29T09:54:46;9.60;;;3.60;;
912;SDS011;443;51.448;7.028;2022-07-29T09:57:24;5.80;;;3.83;;
912;SDS011;443;51.448;7.028;2022-07-29T09:59:58;6.07;;;3.10;;
912;SDS011;443;51.448;7.028;2022-07-29T10:02:30;9.10;;;3.83;;
912;SDS011;443;51.448;7.028;2022-07-29T10:04:58;3.27;;;2.90;;
912;SDS011;443;51.448;7.028;2022-07-29T10:07:25;6.07;;;3.23;;
912;SDS011;443;51.448;7.028;2022-07-29T10:09:53;4.40;;;3.33;;
912;SDS011;443;51.448;7.028;2022-07-29T10:12:21;8.93;;;2.97;;
912;SDS011;443;51.448;7.028;2022-07-29T10:14:50;6.47;;;3.30;;
912;SDS011;443;51.448;7.028;2022-07-29T10:17:17;5.13;;;3.63;;
912;SDS011;443;51.448;7.028;2022-07-29T10:19:45;8.77;;;3.70;;
912;SDS011;443;51.448;7.028;2022-07-29T10:22:13;4.13;;;3.53;;
912;SDS011;443;51.448;7.028;2022-07-29T10:24:40;5.90;;;4.10;;
912;SDS011;443;51.448;7.028;2022-07-29T10:27:07;6.80;;;4.30;;
912;SDS011;443;51.448;7.028;2022-07-29T10:29:36;5.63;;;4.13;;
912;SDS011;443;51.448;7.028;2022-07-29T10:35:08;8.63;;;4.30;;
912;SDS011;443;51.448;7.028;2022-07-29T10:37:49;3.50;;;3.20;;
912;SDS011;443;51.448;7.028;2022-07-29T10:40:31;4.03;;;3.63;;
912;SDS011;443;51.448;7.028;2022-07-29T10:43:27;4.77;;;4.10;;
912;SDS011;443;51.448;7.028;2022-07-29T10:45:59;4.80;;;3.63;;
912;SDS011;443;51.448;7.028;2022-07-29T10:48:27;7.33;;;4.40;;
912;SDS011;443;51.448;7.028;2022-07-29T10:50:55;4.73;;;3.77;;
912;SDS011;443;51.448;7.028;2022-07-29T10:53:24;5.70;;;3.30;;
912;SDS011;443;51.448;7.028;2022-07-29T10:56:22;5.93;;;4.13;;
912;SDS011;443;51.448;7.028;2022-07-29T11:01:52;8.73;;;3.90;;
912;SDS011;443;51.448;7.028;2022-07-29T11:07:24;8.23;;;3.83;;
912;SDS011;443;51.448;7.028;2022-07-29T11:12:47;6.20;;;3.50;;
912;SDS011;443;51.448;7.028;2022-07-29T11:15:15;4.30;;;2.03;;
912;SDS011;443;51.448;7.028;2022-07-29T11:20:38;4.83;;;2.70;;
912;SDS011;443;51.448;7.028;2022-07-29T11:28:49;7.47;;;2.63;;
912;SDS011;443;51.448;7.028;2022-07-29T11:31:19;4.47;;;3.10;;
912;SDS011;443;51.448;7.028;2022-07-29T11:39:46;4.13;;;2.53;;
912;SDS011;443;51.448;7.028;2022-07-29T11:42:37;5.50;;;2.70;;
912;SDS011;443;51.448;7.028;2022-07-29T11:45:06;7.30;;;2.10;;
912;SDS011;443;51.448;7.028;2022-07-29T11:47:35;5.10;;;2.83;;
912;SDS011;443;51.448;7.028;2022-07-29T11:52:41;6.03;;;3.20;;
912;SDS011;443;51.448;7.028;2022-07-29T11:55:10;3.87;;;3.50;;
912;SDS011;443;51.448;7.028;2022-07-29T11:57:45;7.37;;;3.20;;
912;SDS011;443;51.448;7.028;2022-07-29T12:00:20;5.03;;;2.97;;
912;SDS011;443;51.448;7.028;2022-07-29T12:02:48;3.60;;;3.30;;
912;SDS011;443;51.448;7.028;2022-07-29T12:05:16;5.10;;;3.00;;
912;SDS011;443;51.448;7.028;2022-07-29T12:07:47;4.30;;;2.53;;
912;SDS011;443;51.448;7.028;2022-07-29T12:10:14;9.00;;;2.93;;
912;SDS011;443;51.448;7.028;2022-07-29T12:12:41;6.23;;;2.70;;
912;SDS011;443;51.448;7.028;2022-07-29T12:15:12;4.83;;;2.70;;
912;SDS011;443;51.448;7.028;2022-07-29T12:17:41;16.73;;;3.70;;
912;SDS011;443;51.448;7.028;2022-07-29T12:20:08;6.07;;;2.73;;
912;SDS011;443;51.448;7.028;2022-07-29T12:22:35;6.60;;;2.27;;
912;SDS011;443;51.448;7.028;2022-07-29T12:25:07;4.13;;;2.30;;
912;SDS011;443;51.448;7.028;2022-07-29T12:27:36;7.63;;;2.13;;
912;SDS011;443;51.448;7.028;2022-07-29T12:30:05;6.23;;;3.07;;
912;SDS011;443;51.448;7.028;2022-07-29T12:32:33;12.03;;;2.37;;
912;SDS011;443;51.448;7.028;2022-07-29T12:35:04;9.77;;;2.67;;
912;SDS011;443;51.448;7.028;2022-07-29T12:37:33;4.20;;;3.00;;
912;SDS011;443;51.448;7.028;2022-07-29T12:40:02;8.47;;;2.60;;
912;SDS011;443;51.448;7.028;2022-07-29T12:42:32;13.33;;;3.47;;
912;SDS011;443;51.448;7.028;2022-07-29T12:44:59;12.80;;;3.40;;
912;SDS011;443;51.448;7.028;2022-07-29T12:47:26;9.80;;;2.77;;
912;SDS011;443;51.448;7.028;2022-07-29T12:50:07;4.10;;;1.90;;
912;SDS011;443;51.448;7.028;2022-07-29T12:52:35;7.37;;;2.80;;
912;SDS011;443;51.448;7.028;2022-07-29T12:55:02;8.03;;;3.03;;
912;SDS011;443;51.448;7.028;2022-07-29T12:57:32;9.90;;;2.63;;
912;SDS011;443;51.448;7.028;2022-07-29T13:00:11;7.73;;;2.20;;
912;SDS011;443;51.448;7.028;2022-07-29T13:02:40;8.20;;;3.07;;
912;SDS011;443;51.448;7.028;2022-07-29T13:05:09;11.60;;;2.83;;
912;SDS011;443;51.448;7.028;2022-07-29T13:07:37;11.90;;;3.40;;
912;SDS011;443;51.448;7.028;2022-07-29T13:10:12;4.83;;;2.13;;
912;SDS011;443;51.448;7.028;2022-07-29T13:15:34;11.23;;;3.43;;
912;SDS011;443;51.448;7.028;2022-07-29T13:18:02;10.93;;;3.20;;
912;SDS011;443;51.448;7.028;2022-07-29T13:20:30;9.13;;;2.33;;
912;SDS011;443;51.448;7.028;2022-07-29T13:22:57;3.53;;;3.20;;
912;SDS011;443;51.448;7.028;2022-07-29T13:25:26;3.73;;;3.00;;
912;SDS011;443;51.448;7.028;2022-07-29T13:27:54;6.07;;;5.13;;
912;SDS011;443;51.448;7.028;2022-07-29T13:30:23;4.30;;;2.47;;
912;SDS011;443;51.448;7.028;2022-07-29T13:32:51;4.17;;;2.03;;
912;SDS011;443;51.448;7.028;2022-07-29T13:35:19;6.43;;;2.60;;
912;SDS011;443;51.448;7.028;2022-07-29T13:37:47;5.20;;;2.60;;
912;SDS011;443;51.448;7.028;2022-07-29T13:40:14;6.47;;;2.50;;
912;SDS011;443;51.448;7.028;2022-07-29T13:42:41;7.13;;;2.90;;
912;SDS011;443;51.448;7.028;2022-07-29T13:45:08;8.70;;;2.43;;
912;SDS011;443;51.448;7.028;2022-07-29T13:47:38;8.20;;;3.13;;
912;SDS011;443;51.448;7.028;2022-07-29T13:50:05;3.90;;;2.37;;
912;SDS011;443;51.448;7.028;2022-07-29T13:52:35;6.20;;;3.63;;
912;SDS011;443;51.448;7.028;2022-07-29T13:55:02;7.00;;;4.13;;
912;SDS011;443;51.448;7.028;2022-07-29T13:57:31;4.80;;;2.77;;
912;SDS011;443;51.448;7.028;2022-07-29T13:59:57;6.37;;;2.60;;
912;SDS011;443;51.448;7.028;2022-07-29T14:02:24;3.73;;;2.90;;
912;SDS011;443;51.448;7.028;2022-07-29T14:04:54;7.27;;;2.90;;
912;SDS011;443;51.448;7.028;2022-07-29T14:07:21;3.70;;;3.27;;
912;SDS011;443;51.448;7.028;2022-07-29T14:09:49;11.23;;;2.57;;
912;SDS011;443;51.448;7.028;2022-07-29T14:12:16;3.27;;;2.97;;
912;SDS011;443;51.448;7.028;2022-07-29T14:14:44;3.70;;;3.20;;
912;SDS011;443;51.448;7.028;2022-07-29T14:17:11;4.17;;;2.20;;
912;SDS011;443;51.448;7.028;2022-07-29T14:19:37;5.17;;;2.40;;
912;SDS011;443;51.448;7.028;2022-07-29T14:22:06;6.40;;;2.20;;
912;SDS011;443;51.448;7.028;2022-07-29T14:24:34;7.77;;;2.80;;
912;SDS011;443;51.448;7.028;2022-07-29T14:27:02;5.77;;;3.47;;
912;SDS011;443;51.448;7.028;2022-07-29T14:29:29;3.70;;;2.37;;
912;SDS011;443;51.448;7.028;2022-07-29T14:31:56;11.60;;;3.20;;
912;SDS011;443;51.448;7.028;2022-07-29T14:34:23;3.47;;;2.63;;
912;SDS011;443;51.448;7.028;2022-07-29T14:36:50;4.17;;;2.97;;
912;SDS011;443;51.448;7.028;2022-07-29T14:39:21;5.20;;;2.93;;
912;SDS011;443;51.448;7.028;2022-07-29T14:41:49;6.03;;;2.40;;
912;SDS011;443;51.448;7.028;2022-07-29T14:44:16;3.57;;;1.93;;
912;SDS011;443;51.448;7.028;2022-07-29T14:46:43;7.47;;;3.37;;
912;SDS011;443;51.448;7.028;2022-07-29T14:49:10;2.90;;;2.17;;
912;SDS011;443;51.448;7.028;2022-07-29T14:51:37;4.07;;;3.67;;
912;SDS011;443;51.448;7.028;2022-07-29T14:54:04;3.63;;;2.60;;
912;SDS011;443;51.448;7.028;2022-07-29T14:56:32;4.23;;;2.93;;
912;SDS011;443;51.448;7.028;2022-07-29T14:58:59;10.53;;;4.80;;
912;SDS011;443;51.448;7.028;2022-07-29T15:01:26;4.40;;;3.90;;
912;SDS011;443;51.448;7.028;2022-07-29T15:03:54;9.60;;;2.57;;
912;SDS011;443;51.448;7.028;2022-07-29T15:06:20;6.50;;;5.57;;
912;SDS011;443;51.448;7.028;2022-07-29T15:08:47;6.63;;;3.77;;
912;SDS011;443;51.448;7.028;2022-07-29T15:11:14;14.23;;;3.53;;
912;SDS011;443;51.448;7.028;2022-07-29T15:13:42;6.00;;;3.00;;
912;SDS011;443;51.448;7.028;2022-07-29T15:16:09;8.40;;;3.27;;
912;SDS011;443;51.448;7.028;2022-07-29T15:18:36;4.93;;;3.43;;
912;SDS011;443;51.448;7.028;2022-07-29T15:21:03;7.67;;;2.93;;
912;SDS011;443;51.448;7.028;2022-07-29T15:23:31;8.40;;;4.67;;
912;SDS011;443;51.448;7.028;2022-07-29T15:26:00;10.17;;;3.87;;
912;SDS011;443;51.448;7.028;2022-07-29T15:28:27;13.13;;;3.60;;
912;SDS011;443;51.448;7.028;2022-07-29T15:30:55;5.40;;;3.60;;
912;SDS011;443;51.448;7.028;2022-07-29T15:33:23;17.23;;;4.00;;
912;SDS011;443;51.448;7.028;2022-07-29T15:35:51;10.40;;;5.03;;
912;SDS011;443;51.448;7.028;2022-07-29T15:38:18;12.80;;;3.30;;
912;SDS011;443;51.448;7.028;2022-07-29T15:40:45;7.20;;;4.57;;
912;SDS011;443;51.448;7.028;2022-07-29T15:43:12;5.50;;;3.30;;
912;SDS011;443;51.448;7.028;2022-07-29T15:45:39;10.63;;;4.37;;
912;SDS011;443;51.448;7.028;2022-07-29T15:48:28;10.60;;;3.37;;
912;SDS011;443;51.448;7.028;2022-07-29T15:50:56;9.23;;;3.30;;
912;SDS011;443;51.448;7.028;2022-07-29T15:53:23;16.40;;;3.47;;
912;SDS011;443;51.448;7.028;2022-07-29T15:55:50;13.13;;;3.60;;
912;SDS011;443;51.448;7.028;2022-07-29T15:58:17;15.30;;;2.97;;
912;SDS011;443;51.448;7.028;2022-07-29T16:00:44;10.53;;;2.10;;
912;SDS011;443;51.448;7.028;2022-07-29T16:03:11;16.37;;;3.40;;
912;SDS011;443;51.448;7.028;2022-07-29T16:05:39;10.13;;;3.60;;
912;SDS011;443;51.448;7.028;2022-07-29T16:08:06;16.20;;;2.87;;
912;SDS011;443;51.448;7.028;2022-07-29T16:10:33;6.83;;;2.80;;
912;SDS011;443;51.448;7.028;2022-07-29T16:13:00;5.50;;;4.00;;
912;SDS011;443;51.448;7.028;2022-07-29T16:15:27;4.80;;;3.00;;
912;SDS011;443;51.448;7.028;2022-07-29T16:17:54;8.17;;;4.67;;
912;SDS011;443;51.448;7.028;2022-07-29T16:20:20;7.40;;;3.10;;
912;SDS011;443;51.448;7.028;2022-07-29T16:22:49;5.43;;;4.03;;
912;SDS011;443;51.448;7.028;2022-07-29T16:25:16;6.10;;;3.00;;